KCCB

Details ICAO KCCB
Name CABLE
Region United States
Timezone America/Los_Angeles (UTC-8.0)
Plans Departing 7
Arriving 5
Stats Elevation 1,444 ft / 440 m (AMSL)
Location 34.111607° -117.687382°
Runways 1
Magnetic Variation 11.891° E
Sunrise 2017-12-17 14:51:54 UTC / 2017-12-17 06:51:54 Local
Sunset 2017-12-18 00:44:53 UTC / 2017-12-17 16:44:53 Local
Advertisement - Login to hide

Runways

ID Width Length Bearing (true) Bearing (mag) Surface Threshold Offset Overrun Length
06 75 ft / 23 m 3,858 ft / 1,176 m 69.05° 57.16° Asphalt 106 ft / 32 m 0 ft / 0 m
24 75 ft / 23 m 3,858 ft / 1,176 m 249.05° 237.16° Asphalt 158 ft / 48 m 0 ft / 0 m

Map

Weather


0- 5 10 15 20 25 30 35+ Temperature / ° C

Clouds and Precipitation
Forecast for 2017-12-17 18:00 UTC. Updated an hour ago

Ground ~20,000 ft ~40,000 ft Winds

METAR

KCCB 171555Z AUTO 32007KT 10SM CLR 11/M04 A2990 RMK AO2

TAF

Not found

Frequencies

Unicom 123.00 MHz CTAF/UNICOM
Approach 125.50 MHz SOCAL APP/DEP
Warning: Do not use this data for real-world aviation or navigation. No guarantee of current accuracy is given.